sensor_id;sensor_type;location;lat;lon;timestamp;P1;durP1;ratioP1;P2;durP2;ratioP2
65373;SDS011;52070;53.760;9.678;2022-08-19T00:01:34;26.25;;;14.73;;
65373;SDS011;52070;53.760;9.678;2022-08-19T00:04:06;32.30;;;17.10;;
65373;SDS011;52070;53.760;9.678;2022-08-19T00:06:35;30.25;;;17.30;;
65373;SDS011;52070;53.760;9.678;2022-08-19T00:09:05;28.10;;;16.17;;
65373;SDS011;52070;53.760;9.678;2022-08-19T00:11:35;28.42;;;16.33;;
65373;SDS011;52070;53.760;9.678;2022-08-19T00:14:03;31.52;;;17.38;;
65373;SDS011;52070;53.760;9.678;2022-08-19T00:16:31;38.40;;;17.67;;
65373;SDS011;52070;53.760;9.678;2022-08-19T00:18:58;38.08;;;19.65;;
65373;SDS011;52070;53.760;9.678;2022-08-19T00:21:25;37.95;;;19.02;;
65373;SDS011;52070;53.760;9.678;2022-08-19T00:23:53;35.30;;;18.75;;
65373;SDS011;52070;53.760;9.678;2022-08-19T00:26:23;42.95;;;19.50;;
65373;SDS011;52070;53.760;9.678;2022-08-19T00:28:51;30.75;;;17.00;;
65373;SDS011;52070;53.760;9.678;2022-08-19T00:31:18;29.98;;;15.40;;
65373;SDS011;52070;53.760;9.678;2022-08-19T00:33:46;33.70;;;14.80;;
65373;SDS011;52070;53.760;9.678;2022-08-19T00:36:13;29.10;;;14.13;;
65373;SDS011;52070;53.760;9.678;2022-08-19T00:38:40;30.52;;;14.45;;
65373;SDS011;52070;53.760;9.678;2022-08-19T00:41:08;35.70;;;15.93;;
65373;SDS011;52070;53.760;9.678;2022-08-19T00:43:36;38.42;;;16.35;;
65373;SDS011;52070;53.760;9.678;2022-08-19T00:46:05;50.05;;;17.27;;
65373;SDS011;52070;53.760;9.678;2022-08-19T00:48:33;43.75;;;18.63;;
65373;SDS011;52070;53.760;9.678;2022-08-19T00:51:01;48.80;;;18.55;;
65373;SDS011;52070;53.760;9.678;2022-08-19T00:53:30;44.70;;;18.10;;
65373;SDS011;52070;53.760;9.678;2022-08-19T00:55:59;47.75;;;18.25;;
65373;SDS011;52070;53.760;9.678;2022-08-19T00:58:30;52.55;;;19.40;;
65373;SDS011;52070;53.760;9.678;2022-08-19T01:01:00;41.92;;;17.75;;
65373;SDS011;52070;53.760;9.678;2022-08-19T01:03:28;51.47;;;19.52;;
65373;SDS011;52070;53.760;9.678;2022-08-19T01:05:55;54.90;;;19.40;;
65373;SDS011;52070;53.760;9.678;2022-08-19T01:08:22;45.03;;;19.60;;
65373;SDS011;52070;53.760;9.678;2022-08-19T01:10:50;64.25;;;21.33;;
65373;SDS011;52070;53.760;9.678;2022-08-19T01:13:21;58.33;;;20.67;;
65373;SDS011;52070;53.760;9.678;2022-08-19T01:15:52;49.63;;;20.23;;
65373;SDS011;52070;53.760;9.678;2022-08-19T01:18:22;68.38;;;21.33;;
65373;SDS011;52070;53.760;9.678;2022-08-19T01:20:51;52.35;;;20.05;;
65373;SDS011;52070;53.760;9.678;2022-08-19T01:23:24;55.90;;;19.83;;
65373;SDS011;52070;53.760;9.678;2022-08-19T01:26:09;66.28;;;18.90;;
65373;SDS011;52070;53.760;9.678;2022-08-19T01:28:37;57.08;;;19.35;;
65373;SDS011;52070;53.760;9.678;2022-08-19T01:31:05;55.15;;;19.33;;
65373;SDS011;52070;53.760;9.678;2022-08-19T01:33:33;58.13;;;18.92;;
65373;SDS011;52070;53.760;9.678;2022-08-19T01:36:05;65.20;;;20.42;;
65373;SDS011;52070;53.760;9.678;2022-08-19T01:38:36;55.00;;;19.60;;
65373;SDS011;52070;53.760;9.678;2022-08-19T01:41:04;59.22;;;20.30;;
65373;SDS011;52070;53.760;9.678;2022-08-19T01:43:31;56.58;;;20.25;;
65373;SDS011;52070;53.760;9.678;2022-08-19T01:45:58;58.15;;;19.85;;
65373;SDS011;52070;53.760;9.678;2022-08-19T01:48:26;55.15;;;18.60;;
65373;SDS011;52070;53.760;9.678;2022-08-19T01:50:55;45.80;;;17.83;;
65373;SDS011;52070;53.760;9.678;2022-08-19T01:53:22;47.65;;;18.45;;
65373;SDS011;52070;53.760;9.678;2022-08-19T01:55:50;44.83;;;18.13;;
65373;SDS011;52070;53.760;9.678;2022-08-19T01:58:19;46.97;;;17.88;;
65373;SDS011;52070;53.760;9.678;2022-08-19T02:00:49;43.88;;;17.63;;
65373;SDS011;52070;53.760;9.678;2022-08-19T02:03:16;49.03;;;18.17;;
65373;SDS011;52070;53.760;9.678;2022-08-19T02:05:43;37.67;;;16.27;;
65373;SDS011;52070;53.760;9.678;2022-08-19T02:08:11;41.50;;;17.48;;
65373;SDS011;52070;53.760;9.678;2022-08-19T02:10:39;46.05;;;18.48;;
65373;SDS011;52070;53.760;9.678;2022-08-19T02:13:09;39.28;;;17.70;;
65373;SDS011;52070;53.760;9.678;2022-08-19T02:15:37;45.47;;;18.13;;
65373;SDS011;52070;53.760;9.678;2022-08-19T02:18:04;44.80;;;18.27;;
65373;SDS011;52070;53.760;9.678;2022-08-19T02:20:33;44.35;;;19.50;;
65373;SDS011;52070;53.760;9.678;2022-08-19T02:23:01;46.28;;;19.10;;
65373;SDS011;52070;53.760;9.678;2022-08-19T02:25:28;41.60;;;18.70;;
65373;SDS011;52070;53.760;9.678;2022-08-19T02:27:54;42.40;;;19.83;;
65373;SDS011;52070;53.760;9.678;2022-08-19T02:30:23;33.83;;;17.35;;
65373;SDS011;52070;53.760;9.678;2022-08-19T02:32:51;41.83;;;19.30;;
65373;SDS011;52070;53.760;9.678;2022-08-19T02:35:19;42.63;;;20.15;;
65373;SDS011;52070;53.760;9.678;2022-08-19T02:37:46;48.88;;;18.10;;
65373;SDS011;52070;53.760;9.678;2022-08-19T02:40:30;40.67;;;18.80;;
65373;SDS011;52070;53.760;9.678;2022-08-19T02:42:59;38.67;;;17.58;;
65373;SDS011;52070;53.760;9.678;2022-08-19T02:45:30;40.40;;;16.25;;
65373;SDS011;52070;53.760;9.678;2022-08-19T02:47:58;34.53;;;15.90;;
65373;SDS011;52070;53.760;9.678;2022-08-19T02:50:25;39.22;;;16.33;;
65373;SDS011;52070;53.760;9.678;2022-08-19T02:52:52;47.88;;;17.92;;
65373;SDS011;52070;53.760;9.678;2022-08-19T02:55:19;41.08;;;17.52;;
65373;SDS011;52070;53.760;9.678;2022-08-19T02:57:47;38.10;;;17.40;;
65373;SDS011;52070;53.760;9.678;2022-08-19T03:00:14;41.15;;;17.85;;
65373;SDS011;52070;53.760;9.678;2022-08-19T03:02:43;35.60;;;16.33;;
65373;SDS011;52070;53.760;9.678;2022-08-19T03:05:12;40.28;;;18.00;;
65373;SDS011;52070;53.760;9.678;2022-08-19T03:07:39;43.08;;;18.20;;
65373;SDS011;52070;53.760;9.678;2022-08-19T03:10:06;40.60;;;18.55;;
65373;SDS011;52070;53.760;9.678;2022-08-19T03:12:35;44.33;;;18.60;;
65373;SDS011;52070;53.760;9.678;2022-08-19T03:15:03;49.95;;;17.92;;
65373;SDS011;52070;53.760;9.678;2022-08-19T03:17:31;35.10;;;16.38;;
65373;SDS011;52070;53.760;9.678;2022-08-19T03:19:59;39.92;;;16.60;;
65373;SDS011;52070;53.760;9.678;2022-08-19T03:22:27;50.20;;;19.45;;
65373;SDS011;52070;53.760;9.678;2022-08-19T03:24:54;52.58;;;19.70;;
65373;SDS011;52070;53.760;9.678;2022-08-19T03:27:21;49.03;;;18.45;;
65373;SDS011;52070;53.760;9.678;2022-08-19T03:29:48;47.35;;;18.77;;
65373;SDS011;52070;53.760;9.678;2022-08-19T03:32:15;43.97;;;18.40;;
65373;SDS011;52070;53.760;9.678;2022-08-19T03:34:41;52.95;;;21.02;;
65373;SDS011;52070;53.760;9.678;2022-08-19T03:37:11;59.70;;;21.27;;
65373;SDS011;52070;53.760;9.678;2022-08-19T03:39:38;50.65;;;21.02;;
65373;SDS011;52070;53.760;9.678;2022-08-19T03:42:07;53.58;;;20.05;;
65373;SDS011;52070;53.760;9.678;2022-08-19T03:44:35;54.00;;;22.08;;
65373;SDS011;52070;53.760;9.678;2022-08-19T03:47:03;47.95;;;20.88;;
65373;SDS011;52070;53.760;9.678;2022-08-19T03:49:32;51.03;;;21.00;;
65373;SDS011;52070;53.760;9.678;2022-08-19T03:52:00;50.25;;;20.70;;
65373;SDS011;52070;53.760;9.678;2022-08-19T03:54:29;47.22;;;21.42;;
65373;SDS011;52070;53.760;9.678;2022-08-19T03:56:56;44.47;;;21.45;;
65373;SDS011;52070;53.760;9.678;2022-08-19T03:59:24;49.83;;;21.63;;
65373;SDS011;52070;53.760;9.678;2022-08-19T04:01:53;44.75;;;21.70;;
65373;SDS011;52070;53.760;9.678;2022-08-19T04:04:21;42.80;;;22.15;;
65373;SDS011;52070;53.760;9.678;2022-08-19T04:06:48;52.55;;;21.60;;
65373;SDS011;52070;53.760;9.678;2022-08-19T04:09:16;44.60;;;21.63;;
65373;SDS011;52070;53.760;9.678;2022-08-19T04:11:47;47.22;;;22.10;;
65373;SDS011;52070;53.760;9.678;2022-08-19T04:14:17;46.10;;;21.88;;
65373;SDS011;52070;53.760;9.678;2022-08-19T04:16:45;49.38;;;20.10;;
65373;SDS011;52070;53.760;9.678;2022-08-19T04:19:13;50.80;;;22.15;;
65373;SDS011;52070;53.760;9.678;2022-08-19T04:21:42;37.33;;;19.00;;
65373;SDS011;52070;53.760;9.678;2022-08-19T04:24:10;40.22;;;19.77;;
65373;SDS011;52070;53.760;9.678;2022-08-19T04:26:38;46.28;;;21.10;;
65373;SDS011;52070;53.760;9.678;2022-08-19T04:29:07;45.15;;;19.80;;
65373;SDS011;52070;53.760;9.678;2022-08-19T04:31:36;40.42;;;19.85;;
65373;SDS011;52070;53.760;9.678;2022-08-19T04:34:05;37.28;;;20.02;;
65373;SDS011;52070;53.760;9.678;2022-08-19T04:36:36;38.38;;;19.77;;
65373;SDS011;52070;53.760;9.678;2022-08-19T04:39:04;41.35;;;19.75;;
65373;SDS011;52070;53.760;9.678;2022-08-19T04:41:34;43.13;;;19.48;;
65373;SDS011;52070;53.760;9.678;2022-08-19T04:44:20;33.72;;;19.05;;
65373;SDS011;52070;53.760;9.678;2022-08-19T04:46:47;40.38;;;21.38;;
65373;SDS011;52070;53.760;9.678;2022-08-19T04:49:16;40.33;;;20.02;;
65373;SDS011;52070;53.760;9.678;2022-08-19T04:51:44;35.53;;;19.30;;
65373;SDS011;52070;53.760;9.678;2022-08-19T04:54:13;42.10;;;20.47;;
65373;SDS011;52070;53.760;9.678;2022-08-19T04:56:41;40.03;;;19.80;;
65373;SDS011;52070;53.760;9.678;2022-08-19T04:59:09;36.58;;;17.48;;
65373;SDS011;52070;53.760;9.678;2022-08-19T05:01:37;38.38;;;19.77;;
65373;SDS011;52070;53.760;9.678;2022-08-19T05:04:05;42.40;;;19.88;;
65373;SDS011;52070;53.760;9.678;2022-08-19T05:06:33;36.47;;;18.45;;
65373;SDS011;52070;53.760;9.678;2022-08-19T05:09:00;37.65;;;19.05;;
65373;SDS011;52070;53.760;9.678;2022-08-19T05:11:31;36.35;;;19.10;;
65373;SDS011;52070;53.760;9.678;2022-08-19T05:13:59;33.47;;;18.15;;
65373;SDS011;52070;53.760;9.678;2022-08-19T05:16:27;27.05;;;16.40;;
65373;SDS011;52070;53.760;9.678;2022-08-19T05:18:55;32.90;;;17.65;;
65373;SDS011;52070;53.760;9.678;2022-08-19T05:21:40;38.33;;;19.92;;
65373;SDS011;52070;53.760;9.678;2022-08-19T05:24:25;32.28;;;17.92;;
65373;SDS011;52070;53.760;9.678;2022-08-19T05:26:53;37.35;;;18.98;;
65373;SDS011;52070;53.760;9.678;2022-08-19T05:29:25;37.40;;;19.17;;
65373;SDS011;52070;53.760;9.678;2022-08-19T05:31:54;33.53;;;17.48;;
65373;SDS011;52070;53.760;9.678;2022-08-19T05:34:23;32.78;;;17.35;;
65373;SDS011;52070;53.760;9.678;2022-08-19T05:36:51;30.30;;;17.35;;
65373;SDS011;52070;53.760;9.678;2022-08-19T05:39:21;27.00;;;16.05;;
65373;SDS011;52070;53.760;9.678;2022-08-19T05:41:49;28.35;;;16.35;;
65373;SDS011;52070;53.760;9.678;2022-08-19T05:44:18;25.15;;;16.58;;
65373;SDS011;52070;53.760;9.678;2022-08-19T05:46:47;25.92;;;15.63;;
65373;SDS011;52070;53.760;9.678;2022-08-19T05:49:14;27.90;;;16.85;;
65373;SDS011;52070;53.760;9.678;2022-08-19T05:51:43;28.75;;;16.52;;
65373;SDS011;52070;53.760;9.678;2022-08-19T05:54:11;31.08;;;15.35;;
65373;SDS011;52070;53.760;9.678;2022-08-19T05:56:39;27.30;;;15.93;;
65373;SDS011;52070;53.760;9.678;2022-08-19T05:59:07;28.17;;;17.05;;
65373;SDS011;52070;53.760;9.678;2022-08-19T06:01:36;35.42;;;19.25;;
65373;SDS011;52070;53.760;9.678;2022-08-19T06:04:05;30.40;;;18.50;;
65373;SDS011;52070;53.760;9.678;2022-08-19T06:06:32;33.90;;;18.27;;
65373;SDS011;52070;53.760;9.678;2022-08-19T06:09:01;31.52;;;19.13;;
65373;SDS011;52070;53.760;9.678;2022-08-19T06:11:33;37.45;;;19.90;;
65373;SDS011;52070;53.760;9.678;2022-08-19T06:14:03;44.47;;;22.58;;
65373;SDS011;52070;53.760;9.678;2022-08-19T06:16:33;40.60;;;22.80;;
65373;SDS011;52070;53.760;9.678;2022-08-19T06:19:02;41.90;;;23.10;;
65373;SDS011;52070;53.760;9.678;2022-08-19T06:21:32;40.97;;;23.08;;
65373;SDS011;52070;53.760;9.678;2022-08-19T06:24:04;45.45;;;24.75;;
65373;SDS011;52070;53.760;9.678;2022-08-19T06:26:33;39.23;;;22.67;;
65373;SDS011;52070;53.760;9.678;2022-08-19T06:29:01;49.10;;;25.27;;
65373;SDS011;52070;53.760;9.678;2022-08-19T06:31:29;48.70;;;25.15;;
65373;SDS011;52070;53.760;9.678;2022-08-19T06:33:59;50.47;;;26.70;;
65373;SDS011;52070;53.760;9.678;2022-08-19T06:36:28;49.58;;;25.83;;
65373;SDS011;52070;53.760;9.678;2022-08-19T06:38:59;50.20;;;24.83;;
65373;SDS011;52070;53.760;9.678;2022-08-19T06:41:28;53.20;;;27.42;;
65373;SDS011;52070;53.760;9.678;2022-08-19T06:43:56;49.55;;;26.73;;
65373;SDS011;52070;53.760;9.678;2022-08-19T06:46:23;50.75;;;27.05;;
65373;SDS011;52070;53.760;9.678;2022-08-19T06:48:51;48.35;;;26.75;;
65373;SDS011;52070;53.760;9.678;2022-08-19T06:51:20;52.85;;;26.20;;
65373;SDS011;52070;53.760;9.678;2022-08-19T06:53:49;54.65;;;26.40;;
65373;SDS011;52070;53.760;9.678;2022-08-19T06:56:18;54.95;;;28.58;;
65373;SDS011;52070;53.760;9.678;2022-08-19T06:58:48;46.58;;;26.58;;
65373;SDS011;52070;53.760;9.678;2022-08-19T07:01:16;51.30;;;26.40;;
65373;SDS011;52070;53.760;9.678;2022-08-19T07:03:43;54.75;;;27.27;;
65373;SDS011;52070;53.760;9.678;2022-08-19T07:06:13;51.08;;;27.73;;
65373;SDS011;52070;53.760;9.678;2022-08-19T07:08:43;52.05;;;27.45;;
65373;SDS011;52070;53.760;9.678;2022-08-19T07:11:11;57.95;;;30.48;;
65373;SDS011;52070;53.760;9.678;2022-08-19T07:13:40;58.85;;;30.75;;
65373;SDS011;52070;53.760;9.678;2022-08-19T07:16:11;57.28;;;30.02;;
65373;SDS011;52070;53.760;9.678;2022-08-19T07:18:40;68.60;;;33.05;;
65373;SDS011;52070;53.760;9.678;2022-08-19T07:21:08;56.83;;;32.20;;
65373;SDS011;52070;53.760;9.678;2022-08-19T07:23:37;63.78;;;33.53;;
65373;SDS011;52070;53.760;9.678;2022-08-19T07:26:05;65.80;;;33.45;;
65373;SDS011;52070;53.760;9.678;2022-08-19T07:28:33;70.47;;;33.70;;
65373;SDS011;52070;53.760;9.678;2022-08-19T07:31:00;62.63;;;32.97;;
65373;SDS011;52070;53.760;9.678;2022-08-19T07:33:30;71.68;;;34.45;;
65373;SDS011;52070;53.760;9.678;2022-08-19T07:35:58;68.15;;;32.78;;
65373;SDS011;52070;53.760;9.678;2022-08-19T07:38:25;73.18;;;34.33;;
65373;SDS011;52070;53.760;9.678;2022-08-19T07:40:52;65.45;;;33.75;;
65373;SDS011;52070;53.760;9.678;2022-08-19T07:43:19;58.55;;;32.28;;
65373;SDS011;52070;53.760;9.678;2022-08-19T07:45:48;61.88;;;31.58;;
65373;SDS011;52070;53.760;9.678;2022-08-19T07:48:15;57.35;;;29.80;;
65373;SDS011;52070;53.760;9.678;2022-08-19T07:50:43;67.05;;;30.42;;
65373;SDS011;52070;53.760;9.678;2022-08-19T07:53:11;58.85;;;28.90;;
65373;SDS011;52070;53.760;9.678;2022-08-19T07:55:38;55.90;;;27.98;;
65373;SDS011;52070;53.760;9.678;2022-08-19T07:58:05;51.55;;;25.55;;
65373;SDS011;52070;53.760;9.678;2022-08-19T08:00:32;52.20;;;26.27;;
65373;SDS011;52070;53.760;9.678;2022-08-19T08:03:00;46.78;;;24.58;;
65373;SDS011;52070;53.760;9.678;2022-08-19T08:05:27;51.78;;;23.20;;
65373;SDS011;52070;53.760;9.678;2022-08-19T08:08:13;44.42;;;22.85;;
65373;SDS011;52070;53.760;9.678;2022-08-19T08:10:58;47.13;;;22.83;;
65373;SDS011;52070;53.760;9.678;2022-08-19T08:13:26;44.08;;;22.40;;
65373;SDS011;52070;53.760;9.678;2022-08-19T08:15:53;36.83;;;20.42;;
65373;SDS011;52070;53.760;9.678;2022-08-19T08:18:20;42.85;;;22.25;;
65373;SDS011;52070;53.760;9.678;2022-08-19T08:20:47;41.83;;;21.90;;
65373;SDS011;52070;53.760;9.678;2022-08-19T08:23:16;39.90;;;20.63;;
65373;SDS011;52070;53.760;9.678;2022-08-19T08:25:51;44.05;;;21.38;;
65373;SDS011;52070;53.760;9.678;2022-08-19T08:28:18;41.17;;;19.00;;
65373;SDS011;52070;53.760;9.678;2022-08-19T08:30:46;35.22;;;18.85;;
65373;SDS011;52070;53.760;9.678;2022-08-19T08:33:16;34.38;;;18.30;;
65373;SDS011;52070;53.760;9.678;2022-08-19T08:35:44;29.98;;;17.35;;
65373;SDS011;52070;53.760;9.678;2022-08-19T08:38:12;34.95;;;18.65;;
65373;SDS011;52070;53.760;9.678;2022-08-19T08:40:44;34.90;;;17.60;;
65373;SDS011;52070;53.760;9.678;2022-08-19T08:43:18;39.33;;;18.00;;
65373;SDS011;52070;53.760;9.678;2022-08-19T08:45:52;38.88;;;18.98;;
65373;SDS011;52070;53.760;9.678;2022-08-19T08:48:24;35.22;;;20.08;;
65373;SDS011;52070;53.760;9.678;2022-08-19T08:50:56;35.28;;;20.88;;
65373;SDS011;52070;53.760;9.678;2022-08-19T08:53:25;33.17;;;19.45;;
65373;SDS011;52070;53.760;9.678;2022-08-19T08:55:54;34.58;;;19.08;;
65373;SDS011;52070;53.760;9.678;2022-08-19T08:58:24;33.03;;;18.85;;
65373;SDS011;52070;53.760;9.678;2022-08-19T09:00:56;31.33;;;18.17;;
65373;SDS011;52070;53.760;9.678;2022-08-19T09:03:24;33.67;;;18.48;;
65373;SDS011;52070;53.760;9.678;2022-08-19T09:05:56;37.88;;;17.58;;
65373;SDS011;52070;53.760;9.678;2022-08-19T09:08:30;29.33;;;17.45;;
65373;SDS011;52070;53.760;9.678;2022-08-19T09:11:11;35.15;;;17.83;;
65373;SDS011;52070;53.760;9.678;2022-08-19T09:14:00;33.00;;;17.50;;
65373;SDS011;52070;53.760;9.678;2022-08-19T09:16:34;32.00;;;17.10;;
65373;SDS011;52070;53.760;9.678;2022-08-19T09:19:02;37.03;;;17.20;;
65373;SDS011;52070;53.760;9.678;2022-08-19T09:21:31;27.08;;;15.07;;
65373;SDS011;52070;53.760;9.678;2022-08-19T09:23:58;32.88;;;15.38;;
65373;SDS011;52070;53.760;9.678;2022-08-19T09:26:26;33.72;;;15.88;;
65373;SDS011;52070;53.760;9.678;2022-08-19T09:28:53;32.22;;;14.85;;
65373;SDS011;52070;53.760;9.678;2022-08-19T09:31:21;29.23;;;14.85;;
65373;SDS011;52070;53.760;9.678;2022-08-19T09:33:50;32.63;;;14.43;;
65373;SDS011;52070;53.760;9.678;2022-08-19T09:36:19;22.85;;;14.20;;
65373;SDS011;52070;53.760;9.678;2022-08-19T09:38:50;26.15;;;14.60;;
65373;SDS011;52070;53.760;9.678;2022-08-19T09:41:18;23.17;;;13.45;;
65373;SDS011;52070;53.760;9.678;2022-08-19T09:43:49;33.70;;;13.87;;
65373;SDS011;52070;53.760;9.678;2022-08-19T09:46:19;28.45;;;13.88;;
65373;SDS011;52070;53.760;9.678;2022-08-19T09:48:46;24.42;;;13.73;;
65373;SDS011;52070;53.760;9.678;2022-08-19T09:51:17;21.77;;;13.63;;
65373;SDS011;52070;53.760;9.678;2022-08-19T09:53:46;25.52;;;13.38;;
65373;SDS011;52070;53.760;9.678;2022-08-19T09:56:15;24.13;;;13.77;;
65373;SDS011;52070;53.760;9.678;2022-08-19T09:58:44;22.83;;;13.45;;
65373;SDS011;52070;53.760;9.678;2022-08-19T10:01:17;19.60;;;11.63;;
65373;SDS011;52070;53.760;9.678;2022-08-19T10:03:46;20.80;;;12.35;;
65373;SDS011;52070;53.760;9.678;2022-08-19T10:06:17;20.02;;;11.98;;
65373;SDS011;52070;53.760;9.678;2022-08-19T10:08:45;18.98;;;11.60;;
65373;SDS011;52070;53.760;9.678;2022-08-19T10:11:12;23.65;;;12.60;;
65373;SDS011;52070;53.760;9.678;2022-08-19T10:13:42;18.20;;;11.75;;
65373;SDS011;52070;53.760;9.678;2022-08-19T10:16:10;16.38;;;11.30;;
65373;SDS011;52070;53.760;9.678;2022-08-19T10:18:41;19.48;;;12.40;;
65373;SDS011;52070;53.760;9.678;2022-08-19T10:21:10;23.00;;;12.50;;
65373;SDS011;52070;53.760;9.678;2022-08-19T10:23:39;21.67;;;12.13;;
65373;SDS011;52070;53.760;9.678;2022-08-19T10:26:13;21.42;;;12.68;;
65373;SDS011;52070;53.760;9.678;2022-08-19T10:28:41;20.35;;;11.98;;
65373;SDS011;52070;53.760;9.678;2022-08-19T10:31:10;19.17;;;12.30;;
65373;SDS011;52070;53.760;9.678;2022-08-19T10:33:38;18.10;;;12.18;;
65373;SDS011;52070;53.760;9.678;2022-08-19T10:36:08;19.50;;;12.48;;
65373;SDS011;52070;53.760;9.678;2022-08-19T10:38:37;17.60;;;11.93;;
65373;SDS011;52070;53.760;9.678;2022-08-19T10:41:07;18.80;;;11.88;;
65373;SDS011;52070;53.760;9.678;2022-08-19T10:43:36;18.40;;;11.25;;
65373;SDS011;52070;53.760;9.678;2022-08-19T10:46:05;16.63;;;11.30;;
65373;SDS011;52070;53.760;9.678;2022-08-19T10:48:32;17.00;;;11.20;;
65373;SDS011;52070;53.760;9.678;2022-08-19T10:51:00;16.27;;;11.10;;
65373;SDS011;52070;53.760;9.678;2022-08-19T10:53:46;18.70;;;11.07;;
65373;SDS011;52070;53.760;9.678;2022-08-19T10:56:13;15.55;;;11.50;;
65373;SDS011;52070;53.760;9.678;2022-08-19T10:58:58;16.55;;;9.48;;
65373;SDS011;52070;53.760;9.678;2022-08-19T11:01:25;14.13;;;10.63;;
65373;SDS011;52070;53.760;9.678;2022-08-19T11:03:55;14.82;;;10.35;;
65373;SDS011;52070;53.760;9.678;2022-08-19T11:06:23;14.90;;;10.38;;
65373;SDS011;52070;53.760;9.678;2022-08-19T11:08:52;16.90;;;10.00;;
65373;SDS011;52070;53.760;9.678;2022-08-19T11:11:20;17.35;;;10.98;;
65373;SDS011;52070;53.760;9.678;2022-08-19T11:13:49;18.27;;;11.68;;
65373;SDS011;52070;53.760;9.678;2022-08-19T11:16:17;14.15;;;10.57;;
65373;SDS011;52070;53.760;9.678;2022-08-19T11:18:47;19.00;;;11.90;;
65373;SDS011;52070;53.760;9.678;2022-08-19T11:23:46;16.80;;;12.07;;
65373;SDS011;52070;53.760;9.678;2022-08-19T11:26:17;18.55;;;12.52;;
65373;SDS011;52070;53.760;9.678;2022-08-19T11:28:45;19.48;;;13.30;;
65373;SDS011;52070;53.760;9.678;2022-08-19T11:31:12;20.00;;;12.45;;
65373;SDS011;52070;53.760;9.678;2022-08-19T11:33:42;16.30;;;12.30;;
65373;SDS011;52070;53.760;9.678;2022-08-19T11:36:10;17.27;;;13.30;;
65373;SDS011;52070;53.760;9.678;2022-08-19T11:38:37;24.25;;;13.77;;
65373;SDS011;52070;53.760;9.678;2022-08-19T11:41:05;24.38;;;14.63;;
65373;SDS011;52070;53.760;9.678;2022-08-19T11:43:35;18.63;;;11.98;;
65373;SDS011;52070;53.760;9.678;2022-08-19T11:46:03;18.50;;;12.15;;
65373;SDS011;52070;53.760;9.678;2022-08-19T11:48:32;17.67;;;12.98;;
65373;SDS011;52070;53.760;9.678;2022-08-19T11:51:02;21.48;;;13.05;;
65373;SDS011;52070;53.760;9.678;2022-08-19T11:53:32;18.38;;;13.15;;
65373;SDS011;52070;53.760;9.678;2022-08-19T11:55:59;18.50;;;12.55;;
65373;SDS011;52070;53.760;9.678;2022-08-19T11:58:26;20.13;;;12.23;;
65373;SDS011;52070;53.760;9.678;2022-08-19T12:00:55;20.73;;;12.68;;
65373;SDS011;52070;53.760;9.678;2022-08-19T12:03:23;16.45;;;11.70;;
65373;SDS011;52070;53.760;9.678;2022-08-19T12:05:50;19.77;;;12.45;;
65373;SDS011;52070;53.760;9.678;2022-08-19T12:08:17;21.45;;;12.95;;
65373;SDS011;52070;53.760;9.678;2022-08-19T12:10:44;17.75;;;11.32;;
65373;SDS011;52070;53.760;9.678;2022-08-19T12:13:12;14.05;;;11.55;;
65373;SDS011;52070;53.760;9.678;2022-08-19T12:15:41;14.70;;;10.70;;
65373;SDS011;52070;53.760;9.678;2022-08-19T12:18:09;14.00;;;9.75;;
65373;SDS011;52070;53.760;9.678;2022-08-19T12:20:36;14.05;;;9.50;;
65373;SDS011;52070;53.760;9.678;2022-08-19T12:23:05;15.27;;;11.95;;
65373;SDS011;52070;53.760;9.678;2022-08-19T12:25:34;15.23;;;10.93;;
65373;SDS011;52070;53.760;9.678;2022-08-19T12:28:02;15.93;;;10.35;;
65373;SDS011;52070;53.760;9.678;2022-08-19T12:30:29;15.20;;;10.65;;
65373;SDS011;52070;53.760;9.678;2022-08-19T12:32:56;16.83;;;11.65;;
65373;SDS011;52070;53.760;9.678;2022-08-19T12:35:24;15.57;;;10.73;;
65373;SDS011;52070;53.760;9.678;2022-08-19T12:37:51;15.27;;;11.52;;
65373;SDS011;52070;53.760;9.678;2022-08-19T12:40:18;20.75;;;14.00;;
65373;SDS011;52070;53.760;9.678;2022-08-19T12:42:45;15.48;;;11.25;;
65373;SDS011;52070;53.760;9.678;2022-08-19T12:45:13;17.20;;;13.10;;
65373;SDS011;52070;53.760;9.678;2022-08-19T12:47:41;20.45;;;13.90;;
65373;SDS011;52070;53.760;9.678;2022-08-19T12:50:08;18.75;;;13.05;;
65373;SDS011;52070;53.760;9.678;2022-08-19T12:52:37;16.00;;;12.35;;
65373;SDS011;52070;53.760;9.678;2022-08-19T12:55:05;21.17;;;14.02;;
65373;SDS011;52070;53.760;9.678;2022-08-19T12:57:33;18.58;;;13.90;;
65373;SDS011;52070;53.760;9.678;2022-08-19T13:00:03;21.40;;;13.43;;
65373;SDS011;52070;53.760;9.678;2022-08-19T13:02:34;20.15;;;15.45;;
65373;SDS011;52070;53.760;9.678;2022-08-19T13:05:01;22.13;;;15.30;;
65373;SDS011;52070;53.760;9.678;2022-08-19T13:07:29;18.90;;;14.90;;
65373;SDS011;52070;53.760;9.678;2022-08-19T13:09:59;21.73;;;14.23;;
65373;SDS011;52070;53.760;9.678;2022-08-19T13:12:26;22.45;;;14.82;;
65373;SDS011;52070;53.760;9.678;2022-08-19T13:14:54;20.40;;;14.43;;
65373;SDS011;52070;53.760;9.678;2022-08-19T13:17:21;22.40;;;14.80;;
65373;SDS011;52070;53.760;9.678;2022-08-19T13:19:48;19.17;;;13.40;;
65373;SDS011;52070;53.760;9.678;2022-08-19T13:22:16;19.45;;;14.45;;
65373;SDS011;52070;53.760;9.678;2022-08-19T13:24:44;18.33;;;14.20;;
65373;SDS011;52070;53.760;9.678;2022-08-19T13:27:12;19.60;;;14.95;;
65373;SDS011;52070;53.760;9.678;2022-08-19T13:29:40;18.02;;;13.50;;
65373;SDS011;52070;53.760;9.678;2022-08-19T13:32:25;20.33;;;12.73;;
65373;SDS011;52070;53.760;9.678;2022-08-19T13:35:10;16.70;;;11.43;;
65373;SDS011;52070;53.760;9.678;2022-08-19T13:37:37;18.60;;;12.32;;
65373;SDS011;52070;53.760;9.678;2022-08-19T13:40:08;16.88;;;12.60;;
65373;SDS011;52070;53.760;9.678;2022-08-19T13:42:39;17.02;;;12.73;;
65373;SDS011;52070;53.760;9.678;2022-08-19T13:45:07;17.35;;;14.10;;
65373;SDS011;52070;53.760;9.678;2022-08-19T13:47:35;15.73;;;12.57;;
65373;SDS011;52070;53.760;9.678;2022-08-19T13:50:08;16.70;;;12.85;;
65373;SDS011;52070;53.760;9.678;2022-08-19T13:52:37;16.08;;;12.40;;
65373;SDS011;52070;53.760;9.678;2022-08-19T13:55:04;14.45;;;11.60;;
65373;SDS011;52070;53.760;9.678;2022-08-19T13:57:33;17.48;;;12.88;;
65373;SDS011;52070;53.760;9.678;2022-08-19T14:00:02;18.60;;;11.75;;
65373;SDS011;52070;53.760;9.678;2022-08-19T14:02:30;14.00;;;10.60;;
65373;SDS011;52070;53.760;9.678;2022-08-19T14:04:57;13.18;;;10.25;;
65373;SDS011;52070;53.760;9.678;2022-08-19T14:07:24;14.85;;;11.15;;
65373;SDS011;52070;53.760;9.678;2022-08-19T14:09:51;15.68;;;10.77;;
65373;SDS011;52070;53.760;9.678;2022-08-19T14:12:19;14.23;;;10.50;;
65373;SDS011;52070;53.760;9.678;2022-08-19T14:14:46;14.98;;;10.15;;
65373;SDS011;52070;53.760;9.678;2022-08-19T14:17:15;15.65;;;10.55;;
65373;SDS011;52070;53.760;9.678;2022-08-19T14:19:42;12.70;;;9.85;;
65373;SDS011;52070;53.760;9.678;2022-08-19T14:22:09;16.63;;;11.25;;
65373;SDS011;52070;53.760;9.678;2022-08-19T14:24:37;15.00;;;10.90;;
65373;SDS011;52070;53.760;9.678;2022-08-19T14:27:05;13.85;;;11.57;;
65373;SDS011;52070;53.760;9.678;2022-08-19T14:29:32;14.80;;;10.35;;
65373;SDS011;52070;53.760;9.678;2022-08-19T14:31:59;14.02;;;10.90;;
65373;SDS011;52070;53.760;9.678;2022-08-19T14:34:28;14.55;;;10.80;;